createdAt,value
2023-03-08T00:03:20.797Z,0.10
2023-03-08T00:08:22.188Z,0.15
2023-03-08T00:13:23.875Z,0.10
2023-03-08T00:18:25.386Z,0.00
2023-03-08T00:23:26.781Z,0.00
2023-03-08T00:28:28.264Z,0.03
2023-03-08T00:33:30.375Z,0.00
2023-03-08T00:38:33.450Z,0.10
2023-03-08T00:43:34.856Z,0.10
2023-03-08T00:48:36.251Z,0.10
2023-03-08T00:53:37.626Z,0.00
2023-03-08T00:58:39.702Z,0.00
2023-03-08T01:03:41.143Z,0.00
2023-03-08T01:08:42.653Z,0.00
2023-03-08T01:13:44.113Z,0.00
2023-03-08T01:18:45.573Z,0.00
2023-03-08T01:23:46.965Z,0.00
2023-03-08T01:28:48.405Z,0.00
2023-03-08T01:33:49.882Z,0.00
2023-03-08T01:38:51.294Z,0.00
2023-03-08T01:43:52.800Z,0.05
2023-03-08T01:49:04.458Z,0.10
2023-03-08T01:54:12.372Z,0.00
2023-03-08T01:59:13.765Z,0.00
2023-03-08T02:04:15.175Z,0.00
2023-03-08T02:09:16.559Z,0.13
2023-03-08T02:14:17.964Z,0.00
2023-03-08T02:19:25.149Z,0.08
2023-03-08T02:24:26.549Z,0.00
2023-03-08T02:29:27.920Z,0.00
2023-03-08T02:34:29.313Z,0.10
2023-03-08T02:39:30.745Z,0.00
2023-03-08T02:44:32.131Z,0.00
2023-03-08T02:49:33.506Z,0.00
2023-03-08T02:54:34.876Z,0.00
2023-03-08T02:59:36.251Z,0.00
2023-03-08T03:04:37.753Z,0.00
2023-03-08T03:09:39.210Z,0.10
2023-03-08T03:14:40.623Z,0.00
2023-03-08T03:19:42.010Z,0.00
2023-03-08T03:24:43.380Z,0.00
2023-03-08T03:29:44.806Z,0.10
2023-03-08T03:34:46.584Z,0.20
2023-03-08T03:39:47.956Z,0.00
2023-03-08T03:44:49.358Z,0.00
2023-03-08T03:49:50.751Z,0.03
2023-03-08T03:54:52.118Z,0.08
2023-03-08T03:59:53.507Z,0.05
2023-03-08T04:04:54.889Z,0.00
2023-03-08T04:09:56.353Z,0.00
2023-03-08T04:14:57.767Z,0.08
2023-03-08T04:19:59.272Z,0.10
2023-03-08T04:25:00.674Z,0.10
2023-03-08T04:30:02.123Z,0.10
2023-03-08T04:35:03.590Z,0.03
2023-03-08T04:40:09.132Z,0.00
2023-03-08T04:45:10.883Z,0.10
2023-03-08T04:50:12.281Z,0.00
2023-03-08T04:55:13.643Z,0.08
2023-03-08T05:00:15.711Z,0.10
2023-03-08T05:05:17.117Z,0.10
2023-03-08T05:10:18.524Z,0.00
2023-03-08T05:15:19.962Z,0.00
2023-03-08T05:20:21.359Z,0.08
2023-03-08T05:25:22.737Z,0.00
2023-03-08T05:30:24.155Z,0.10
2023-03-08T05:35:25.556Z,0.00
2023-03-08T05:40:26.931Z,0.00
2023-03-08T05:45:28.453Z,0.10
2023-03-08T05:50:29.896Z,0.10
2023-03-08T05:55:31.268Z,0.00
2023-03-08T06:00:32.658Z,0.10
2023-03-08T06:05:34.067Z,0.10
2023-03-08T06:10:35.439Z,0.22
2023-03-08T06:15:36.846Z,0.10
2023-03-08T06:20:38.250Z,0.17
2023-03-08T06:25:39.632Z,0.10
2023-03-08T06:30:41.056Z,0.10
2023-03-08T06:35:42.660Z,0.30
2023-03-08T06:40:44.076Z,0.22
2023-03-08T06:45:45.676Z,0.00
2023-03-08T06:50:47.114Z,0.13
2023-03-08T06:55:48.504Z,0.00
2023-03-08T07:00:49.953Z,0.10
2023-03-08T07:05:51.361Z,0.22
2023-03-08T07:10:53.094Z,0.20
2023-03-08T07:15:54.645Z,0.20
2023-03-08T07:20:56.476Z,0.20
2023-03-08T07:25:57.866Z,0.30
2023-03-08T07:30:59.279Z,0.40
2023-03-08T07:36:02.155Z,0.20
2023-03-08T07:41:03.616Z,0.20
2023-03-08T07:46:05.112Z,0.17
2023-03-08T07:51:08.707Z,0.10
2023-03-08T07:56:10.276Z,0.20
2023-03-08T08:01:12.070Z,0.20
2023-03-08T08:06:13.491Z,0.30
2023-03-08T08:11:16.048Z,8.05
2023-03-08T08:16:17.512Z,14.98
2023-03-08T08:21:18.928Z,6.15
2023-03-08T08:26:20.989Z,7.80
2023-03-08T08:31:23.824Z,3.60
2023-03-08T08:36:25.470Z,3.65
2023-03-08T08:41:27.992Z,1.70
2023-03-08T08:46:30.837Z,2.95
2023-03-08T08:51:32.321Z,5.70
2023-03-08T08:56:34.405Z,0.50
2023-03-08T09:01:36.864Z,1.67
2023-03-08T09:06:38.368Z,0.20
2023-03-08T09:11:52.165Z,0.40
2023-03-08T09:16:55.959Z,0.30
2023-03-08T09:21:57.403Z,0.20
2023-03-08T09:26:58.797Z,0.60
2023-03-08T09:32:00.619Z,0.38
2023-03-08T09:37:02.841Z,0.28
2023-03-08T09:42:04.345Z,0.40
2023-03-08T09:47:09.255Z,0.17
2023-03-08T09:52:11.819Z,0.13
2023-03-08T09:57:16.662Z,0.10
2023-03-08T10:02:26.213Z,0.20
2023-03-08T10:07:41.483Z,0.17
2023-03-08T10:13:01.323Z,0.20
2023-03-08T10:18:12.209Z,0.30
2023-03-08T10:23:21.186Z,0.10
2023-03-08T10:28:24.178Z,0.30
2023-03-08T10:33:33.462Z,5.05
2023-03-08T10:38:36.046Z,4.32
2023-03-08T10:43:40.095Z,1.23
2023-03-08T10:48:41.638Z,2.35
2023-03-08T10:53:55.535Z,0.70
2023-03-08T10:58:57.224Z,0.30
2023-03-08T11:04:06.585Z,0.63
2023-03-08T11:09:22.825Z,3.10
2023-03-08T11:14:24.711Z,0.88
2023-03-08T11:19:53.911Z,0.38
2023-03-08T11:25:14.080Z,0.47
2023-03-08T11:30:27.929Z,2.13
2023-03-08T11:35:35.441Z,0.32
2023-03-08T11:40:50.896Z,0.98
2023-03-08T11:46:12.423Z,0.20
2023-03-08T11:51:30.980Z,1.00
2023-03-08T11:56:47.646Z,1.00
2023-03-08T12:02:11.302Z,0.35
2023-03-08T12:07:26.328Z,0.55
2023-03-08T12:12:32.336Z,0.65
2023-03-08T12:17:40.657Z,0.73
2023-03-08T12:22:46.157Z,0.50
2023-03-08T12:27:50.484Z,0.57
2023-03-08T12:32:54.622Z,0.70
2023-03-08T12:38:05.009Z,0.20
2023-03-08T12:43:11.742Z,0.32
2023-03-08T12:48:19.032Z,0.30
2023-03-08T12:53:40.610Z,0.40
2023-03-08T12:58:57.876Z,0.93
2023-03-08T13:03:59.782Z,5.55
2023-03-08T13:09:14.250Z,9.90
2023-03-08T13:14:44.773Z,5.07
2023-03-08T13:19:46.184Z,7.53
2023-03-08T13:25:00.007Z,4.50
2023-03-08T13:30:17.707Z,2.75
2023-03-08T13:35:19.933Z,4.10
2023-03-08T13:40:21.830Z,2.15
2023-03-08T13:45:23.268Z,2.38
2023-03-08T13:50:30.539Z,1.33
2023-03-08T13:55:38.588Z,1.58
2023-03-08T14:00:40.264Z,3.92
2023-03-08T14:05:43.524Z,1.20
2023-03-08T14:10:46.900Z,2.53
2023-03-08T14:15:56.479Z,0.55
2023-03-08T14:21:14.869Z,1.27
2023-03-08T14:26:35.400Z,2.47
2023-03-08T14:31:38.856Z,0.90
2023-03-08T14:36:46.595Z,1.00
2023-03-08T14:41:47.977Z,0.60
2023-03-08T14:46:50.676Z,0.95
2023-03-08T14:51:52.790Z,2.53
2023-03-08T14:56:54.180Z,0.60
2023-03-08T15:01:55.671Z,0.22
2023-03-08T15:06:57.093Z,0.35
2023-03-08T15:12:01.732Z,4.85
2023-03-08T15:17:03.161Z,0.25
2023-03-08T15:22:05.105Z,1.02
2023-03-08T15:27:06.540Z,0.43
2023-03-08T15:32:08.163Z,0.22
2023-03-08T15:37:13.576Z,2.20
2023-03-08T15:42:14.962Z,2.75
2023-03-08T15:47:16.637Z,0.75
2023-03-08T15:52:18.092Z,0.57
2023-03-08T15:57:19.494Z,0.60
2023-03-08T16:02:20.997Z,1.10
2023-03-08T16:07:22.437Z,0.75
2023-03-08T16:12:23.998Z,0.25
2023-03-08T16:17:25.852Z,0.20
2023-03-08T16:22:28.936Z,0.38
2023-03-08T16:27:31.129Z,1.17
2023-03-08T16:32:32.638Z,0.40
2023-03-08T16:37:34.257Z,0.85
2023-03-08T16:42:35.682Z,0.30
2023-03-08T16:47:37.081Z,1.08
2023-03-08T16:52:38.463Z,0.40
2023-03-08T16:57:40.143Z,0.85
2023-03-08T17:02:41.546Z,1.77
2023-03-08T17:07:42.944Z,1.70
2023-03-08T17:12:44.324Z,0.60
2023-03-08T17:17:45.736Z,0.30
2023-03-08T17:22:47.116Z,0.35
2023-03-08T17:27:48.528Z,0.30
2023-03-08T17:32:49.915Z,0.30
2023-03-08T17:37:51.488Z,0.73
2023-03-08T17:42:52.911Z,0.45
2023-03-08T17:48:00.913Z,0.32
2023-03-08T17:53:02.314Z,0.30
2023-03-08T17:58:03.923Z,0.30
2023-03-08T18:03:05.322Z,0.40
2023-03-08T18:08:06.691Z,0.35
2023-03-08T18:13:08.055Z,0.40
2023-03-08T18:18:09.454Z,0.75
2023-03-08T18:23:10.870Z,0.50
2023-03-08T18:28:12.284Z,0.60
2023-03-08T18:33:13.768Z,0.30
2023-03-08T18:38:15.183Z,0.30
2023-03-08T18:43:16.640Z,0.68
2023-03-08T18:48:18.097Z,0.30
2023-03-08T18:53:19.471Z,0.40
2023-03-08T18:58:20.962Z,0.40
2023-03-08T19:03:22.450Z,0.40
2023-03-08T19:08:23.869Z,0.60
2023-03-08T19:13:25.276Z,0.60
2023-03-08T19:18:26.654Z,0.40
2023-03-08T19:23:28.027Z,0.43
2023-03-08T19:28:29.472Z,0.47
2023-03-08T19:33:31.848Z,0.50
2023-03-08T19:38:33.371Z,0.20
2023-03-08T19:43:34.763Z,0.40
2023-03-08T19:48:36.480Z,0.50
2023-03-08T19:53:37.852Z,0.57
2023-03-08T19:58:39.221Z,0.60
2023-03-08T20:03:40.635Z,0.50
2023-03-08T20:08:42.064Z,0.50
2023-03-08T20:13:43.468Z,0.80
2023-03-08T20:18:45.111Z,0.40
2023-03-08T20:23:46.867Z,0.40
2023-03-08T20:28:49.505Z,0.50
2023-03-08T20:33:50.997Z,0.50
2023-03-08T20:38:52.420Z,0.60
2023-03-08T20:43:57.239Z,0.85
2023-03-08T20:48:58.718Z,0.50
2023-03-08T20:54:00.123Z,0.75
2023-03-08T20:59:02.265Z,0.50
2023-03-08T21:04:04.911Z,0.47
2023-03-08T21:09:06.307Z,0.88
2023-03-08T21:14:07.713Z,1.05
2023-03-08T21:19:09.179Z,0.60
2023-03-08T21:24:14.908Z,0.85
2023-03-08T21:34:18.545Z,0.63
2023-03-08T21:39:19.949Z,0.75
2023-03-08T21:44:21.322Z,0.50
2023-03-08T21:49:25.158Z,0.50
2023-03-08T21:54:26.986Z,0.73
2023-03-08T21:59:29.134Z,0.88
2023-03-08T22:04:30.608Z,0.60
2023-03-08T22:09:31.987Z,0.60
2023-03-08T22:14:33.456Z,0.63
2023-03-08T22:19:34.831Z,0.50
2023-03-08T22:24:36.195Z,0.70
2023-03-08T22:29:37.600Z,0.68
2023-03-08T22:34:39.034Z,0.65
2023-03-08T22:39:40.429Z,0.45
2023-03-08T22:44:41.820Z,0.52
2023-03-08T22:49:43.267Z,0.45
2023-03-08T22:54:44.824Z,0.40
2023-03-08T22:59:46.776Z,0.60
2023-03-08T23:04:48.776Z,0.70
2023-03-08T23:09:50.156Z,0.50
2023-03-08T23:14:51.526Z,0.50
2023-03-08T23:19:52.910Z,0.60
2023-03-08T23:24:54.284Z,0.45
2023-03-08T23:29:55.682Z,0.50
2023-03-08T23:34:57.097Z,0.43
2023-03-08T23:39:58.515Z,0.82
2023-03-08T23:44:59.896Z,0.50
2023-03-08T23:50:01.305Z,0.75
2023-03-08T23:55:02.753Z,0.52
